Time;durP1;ratioP1;P1;durP2;ratioP2;P2;SDS_P1;SDS_P2;PMS_P1;PMS_P2;Temp;Humidity;BMP_temperature;BMP_pressure;BME280_temperature;BME280_humidity;BME280_pressure;Samples;Min_cycle;Max_cycle;Signal;HPM_P1;HPM_P2
2023/10/10 00:00:54;;;;;;;4.90;2.60;;;;;;;14.31;100.00;101298.06;5074010;28;20075;-80
2023/10/10 00:03:23;;;;;;;4.50;2.30;;;;;;;14.33;100.00;101292.78;5075198;28;20229;-81
2023/10/10 00:05:49;;;;;;;6.25;3.22;;;;;;;14.35;100.00;101301.53;5065418;28;20179;-81
2023/10/10 00:08:20;;;;;;;8.80;2.70;;;;;;;14.30;100.00;101292.81;5070660;28;20050;-80
2023/10/10 00:10:50;;;;;;;4.45;2.33;;;;;;;14.30;100.00;101290.19;5077925;28;20131;-79
2023/10/10 00:13:19;;;;;;;4.28;2.63;;;;;;;14.30;100.00;101290.19;5075816;28;20052;-79
2023/10/10 00:15:51;;;;;;;5.88;2.53;;;;;;;14.27;100.00;101291.09;5073367;28;20029;-79
2023/10/10 00:18:21;;;;;;;4.68;2.97;;;;;;;14.31;100.00;101289.28;5077129;28;20047;-79
2023/10/10 00:21:04;;;;;;;6.05;2.50;;;;;;;14.26;100.00;101297.25;5057272;28;20095;-80
2023/10/10 00:23:43;;;;;;;3.15;2.20;;;;;;;14.23;100.00;101295.53;5075419;28;20047;-80
2023/10/10 00:26:14;;;;;;;5.10;2.92;;;;;;;14.22;100.00;101296.44;5073880;28;20109;-80
2023/10/10 00:28:44;;;;;;;3.60;2.63;;;;;;;14.27;100.00;101295.50;5088127;28;20060;-80
2023/10/10 00:31:17;;;;;;;5.78;2.63;;;;;;;14.30;100.00;101298.97;5072246;28;20040;-80
2023/10/10 00:33:46;;;;;;;4.87;2.17;;;;;;;14.30;100.00;101287.56;5074868;28;20041;-78
2023/10/10 00:36:21;;;;;;;5.10;2.35;;;;;;;14.27;100.00;101277.94;5074628;28;20307;-78
2023/10/10 00:38:54;;;;;;;5.35;3.03;;;;;;;14.31;100.00;101290.16;5072109;28;20132;-79
2023/10/10 00:41:22;;;;;;;3.55;2.65;;;;;;;14.30;100.00;101284.91;5058686;28;20052;-78
2023/10/10 00:43:49;;;;;;;6.00;2.95;;;;;;;14.29;100.00;101281.44;5068347;28;20047;-79
2023/10/10 00:46:16;;;;;;;2.42;2.20;;;;;;;14.31;100.00;101281.41;5070699;28;20039;-77
2023/10/10 00:48:44;;;;;;;5.18;2.17;;;;;;;14.29;100.00;101276.16;5090374;28;20420;-78
2023/10/10 00:51:20;;;;;;;5.13;2.45;;;;;;;14.34;100.00;101269.06;5058696;28;20639;-78
2023/10/10 00:54:08;;;;;;;3.22;2.30;;;;;;;14.35;100.00;101270.81;5073685;28;20047;-79
2023/10/10 00:56:36;;;;;;;4.80;1.63;;;;;;;14.33;100.00;101277.00;5075027;28;20205;-79
2023/10/10 00:59:06;;;;;;;9.40;3.20;;;;;;;14.34;100.00;101278.69;5073096;28;20132;-79
2023/10/10 01:01:34;;;;;;;3.28;1.70;;;;;;;14.38;100.00;101277.78;5058359;28;20151;-77
2023/10/10 01:04:03;;;;;;;3.70;2.40;;;;;;;14.38;100.00;101275.16;5073182;28;20496;-77
2023/10/10 01:06:31;;;;;;;2.20;2.00;;;;;;;14.37;100.00;101279.53;5076158;28;20051;-77
2023/10/10 01:09:03;;;;;;;6.45;2.28;;;;;;;14.35;100.00;101273.44;5066680;28;20492;-81
2023/10/10 01:11:30;;;;;;;5.45;2.35;;;;;;;14.32;100.00;101277.88;5088536;28;20047;-78
2023/10/10 01:13:57;;;;;;;7.60;2.25;;;;;;;14.31;100.00;101277.00;5076420;28;20048;-77
2023/10/10 01:16:25;;;;;;;4.18;2.75;;;;;;;14.25;100.00;101277.09;5073679;28;20079;-77
2023/10/10 01:18:57;;;;;;;5.95;2.90;;;;;;;14.20;100.00;101271.88;5070994;28;20115;-80
2023/10/10 01:21:32;;;;;;;5.57;2.35;;;;;;;14.20;100.00;101284.19;5075347;28;20052;-79
2023/10/10 01:24:11;;;;;;;5.93;2.92;;;;;;;14.19;100.00;101277.19;5091846;28;20044;-79
2023/10/10 01:26:38;;;;;;;4.43;2.40;;;;;;;14.17;100.00;101269.31;5067975;28;20040;-79
2023/10/10 01:29:21;;;;;;;5.30;2.72;;;;;;;14.16;100.00;101272.81;5079150;28;20111;-81
2023/10/10 01:31:51;;;;;;;4.00;2.60;;;;;;;14.19;100.00;101270.13;5077143;28;20100;-81
2023/10/10 01:34:33;;;;;;;5.28;2.42;;;;;;;14.18;100.00;101260.53;5097990;28;20036;-79
2023/10/10 01:37:07;;;;;;;6.80;2.55;;;;;;;14.20;100.00;101263.97;5088182;28;20047;-79
2023/10/10 01:40:14;;;;;;;7.65;2.50;;;;;;;14.20;100.00;101263.13;5096179;28;20076;-80
2023/10/10 01:42:44;;;;;;;3.70;2.50;;;;;;;14.19;100.00;101259.59;5090297;28;20743;-78
2023/10/10 01:45:18;;;;;;;5.88;2.20;;;;;;;14.22;100.00;101259.56;5087455;28;20696;-81
2023/10/10 01:47:56;;;;;;;7.22;3.03;;;;;;;14.20;100.00;101256.09;5065064;28;20653;-78
2023/10/10 01:50:26;;;;;;;8.80;3.20;;;;;;;14.22;100.00;101262.22;5085962;28;20029;-78
2023/10/10 01:52:57;;;;;;;3.70;1.88;;;;;;;14.23;100.00;101253.41;5080501;28;20047;-79
2023/10/10 01:55:27;;;;;;;6.72;2.20;;;;;;;14.23;100.00;101258.66;5066149;28;20922;-80
2023/10/10 01:57:57;;;;;;;6.70;2.40;;;;;;;14.22;100.00;101248.16;5082930;28;20079;-78
2023/10/10 02:00:26;;;;;;;8.13;1.77;;;;;;;14.25;100.00;101250.75;5100427;28;20048;-77
2023/10/10 02:02:57;;;;;;;1.75;1.65;;;;;;;14.25;100.00;101249.88;5095410;28;20043;-77
2023/10/10 02:05:40;;;;;;;6.90;2.53;;;;;;;14.25;100.00;101250.75;5098854;27;20051;-79
2023/10/10 02:08:12;;;;;;;5.13;2.45;;;;;;;14.26;100.00;101251.63;5079555;28;20256;-78
2023/10/10 02:10:44;;;;;;;5.72;2.35;;;;;;;14.28;100.00;101250.72;5092722;28;20047;-78
2023/10/10 02:13:11;;;;;;;5.32;2.55;;;;;;;14.23;100.00;101247.28;5058572;28;20044;-81
2023/10/10 02:15:39;;;;;;;6.32;2.30;;;;;;;14.26;100.00;101259.53;5080771;28;20033;-80
2023/10/10 02:18:13;;;;;;;4.82;2.22;;;;;;;14.23;100.00;101249.91;5079216;28;20048;-79
2023/10/10 02:20:53;;;;;;;6.95;2.83;;;;;;;14.20;100.00;101253.44;5094534;28;20059;-79
2023/10/10 02:23:32;;;;;;;8.95;3.72;;;;;;;14.18;100.00;101250.00;5080228;28;20044;-79
2023/10/10 02:26:23;;;;;;;4.57;2.40;;;;;;;14.20;100.00;101244.69;5072268;28;20064;-79
2023/10/10 02:29:16;;;;;;;8.52;2.63;;;;;;;14.22;100.00;101241.16;5078793;28;20048;-77
2023/10/10 02:31:41;;;;;;;7.35;2.75;;;;;;;14.21;100.00;101249.94;5074127;28;20047;-79
2023/10/10 02:34:10;;;;;;;6.68;2.80;;;;;;;14.24;100.00;101246.38;5092715;28;20130;-79
2023/10/10 02:36:40;;;;;;;10.10;3.85;;;;;;;14.19;100.00;101245.59;5081128;28;20043;-79
2023/10/10 02:39:27;;;;;;;4.35;2.50;;;;;;;14.19;100.00;101246.44;5076648;28;20126;-78
2023/10/10 02:41:59;;;;;;;9.60;3.42;;;;;;;14.16;100.00;101243.84;5080335;28;20041;-80
2023/10/10 02:44:38;;;;;;;10.65;3.25;;;;;;;14.17;100.00;101249.97;5082220;28;20055;-79
2023/10/10 02:47:12;;;;;;;6.85;3.63;;;;;;;14.18;100.00;101257.00;5095381;28;20048;-80
2023/10/10 02:49:38;;;;;;;6.00;2.63;;;;;;;14.21;100.00;101262.25;5063274;28;20123;-79
2023/10/10 02:52:07;;;;;;;4.03;2.53;;;;;;;14.21;100.00;101265.72;5072667;28;20043;-79
2023/10/10 02:54:34;;;;;;;5.63;2.90;;;;;;;14.23;100.00;101273.59;5077661;28;20051;-78
2023/10/10 03:00:15;;;;;;;8.68;3.47;;;;;;;14.23;100.00;101263.94;5070048;28;20044;-77
2023/10/10 03:02:49;;;;;;;7.72;2.67;;;;;;;14.30;100.00;101269.13;5085891;28;20047;-80
2023/10/10 03:05:20;;;;;;;5.90;2.40;;;;;;;14.30;100.00;101263.84;5091779;28;20036;-83
2023/10/10 03:07:51;;;;;;;10.32;2.33;;;;;;;14.32;100.00;101256.81;5095608;28;20106;-79
2023/10/10 03:13:12;;;;;;;3.00;2.00;;;;;;;14.33;100.00;101261.19;5080914;28;20044;-79
2023/10/10 03:15:51;;;;;;;2.97;1.90;;;;;;;14.35;100.00;101259.38;5085331;28;20040;-79
2023/10/10 03:18:19;;;;;;;3.75;2.55;;;;;;;14.35;100.00;101257.63;5087291;28;20044;-79
2023/10/10 03:21:05;;;;;;;5.97;3.00;;;;;;;14.37;100.00;101257.63;5066394;28;20040;-78
2023/10/10 03:23:34;;;;;;;9.10;3.08;;;;;;;14.39;100.00;101254.06;5079266;28;20044;-79
2023/10/10 03:26:06;;;;;;;3.65;2.38;;;;;;;14.38;100.00;101247.03;5079247;28;20135;-79
2023/10/10 03:28:34;;;;;;;4.78;2.80;;;;;;;14.36;100.00;101248.81;5063859;28;20395;-79
2023/10/10 03:31:08;;;;;;;2.92;2.10;;;;;;;14.33;100.00;101234.84;5095247;28;20040;-78
2023/10/10 03:33:37;;;;;;;8.35;3.17;;;;;;;14.27;100.00;101233.16;5079014;28;20135;-78
2023/10/10 03:36:30;;;;;;;4.10;2.65;;;;;;;14.29;100.00;101235.75;5063046;28;20059;-78
2023/10/10 05:23:34;;;;;;;1.83;1.73;;;;;;;14.36;100.00;101217.22;5075017;28;20060;-77
2023/10/10 05:26:02;;;;;;;3.90;2.15;;;;;;;14.38;100.00;101218.06;5061751;28;20036;-79
2023/10/10 05:28:32;;;;;;;2.70;1.48;;;;;;;14.36;100.00;101216.34;5068425;28;20704;-82
2023/10/10 05:31:02;;;;;;;11.65;1.77;;;;;;;14.34;100.00;101220.75;5082408;28;20056;-79
2023/10/10 05:33:30;;;;;;;1.80;1.65;;;;;;;14.32;100.00;101219.94;5074910;28;20115;-77
2023/10/10 05:36:06;;;;;;;3.15;1.50;;;;;;;14.35;100.00;101218.13;5077982;28;20043;-79
2023/10/10 05:38:35;;;;;;;2.00;1.35;;;;;;;14.35;100.00;101217.25;5076387;28;20032;-78
2023/10/10 05:41:06;;;;;;;4.05;2.25;;;;;;;14.38;100.00;101217.22;5078878;28;20048;-79
2023/10/10 05:43:37;;;;;;;2.78;1.83;;;;;;;14.42;100.00;101220.66;5079522;28;20068;-77
2023/10/10 05:46:11;;;;;;;2.40;1.92;;;;;;;14.41;100.00;101222.44;5073072;28;20051;-78
2023/10/10 05:48:38;;;;;;;4.03;1.67;;;;;;;14.39;100.00;101222.44;5075121;28;20671;-78
2023/10/10 05:51:08;;;;;;;4.57;2.25;;;;;;;14.41;100.00;101222.44;5076781;28;20052;-76
2023/10/10 05:53:39;;;;;;;4.45;2.33;;;;;;;14.44;100.00;101232.91;5078804;28;20182;-78
2023/10/10 05:56:16;;;;;;;3.25;2.25;;;;;;;14.47;100.00;101235.50;5080304;28;20051;-77
2023/10/10 05:58:44;;;;;;;5.57;2.78;;;;;;;14.46;100.00;101239.03;5067470;28;20064;-77
2023/10/10 06:01:13;;;;;;;3.30;2.08;;;;;;;14.48;100.00;101239.00;5094232;28;20047;-76
2023/10/10 06:03:45;;;;;;;5.55;2.83;;;;;;;14.50;100.00;101242.50;5079951;28;20040;-77
2023/10/10 06:06:13;;;;;;;4.88;2.22;;;;;;;14.47;100.00;101231.97;5077724;28;20071;-78
2023/10/10 06:08:42;;;;;;;3.25;2.83;;;;;;;14.50;100.00;101238.06;5080043;28;20040;-79
2023/10/10 06:11:13;;;;;;;6.47;2.55;;;;;;;14.49;100.00;101238.97;5077693;28;20502;-80
2023/10/10 06:13:44;;;;;;;2.88;2.63;;;;;;;14.49;100.00;101241.59;5083677;28;20060;-78
2023/10/10 06:16:14;;;;;;;3.47;2.22;;;;;;;14.48;100.00;101239.00;5077875;28;20645;-77
2023/10/10 06:18:47;;;;;;;4.55;3.63;;;;;;;14.47;100.00;101238.13;5075521;28;20040;-77
2023/10/10 06:21:15;;;;;;;4.30;2.90;;;;;;;14.49;100.00;101249.50;5077478;28;20044;-78
2023/10/10 06:23:44;;;;;;;3.30;3.00;;;;;;;14.51;100.00;101253.00;5069524;28;20503;-79
2023/10/10 06:26:13;;;;;;;6.75;3.03;;;;;;;14.52;100.00;101249.47;5076231;28;20032;-77
2023/10/10 06:28:47;;;;;;;3.67;3.15;;;;;;;14.60;100.00;101261.63;5066011;28;20040;-79
2023/10/10 06:31:20;;;;;;;4.57;2.55;;;;;;;14.69;100.00;101257.13;5096665;28;20036;-79
2023/10/10 06:33:50;;;;;;;5.23;3.53;;;;;;;14.77;100.00;101254.38;5083237;28;20040;-79
2023/10/10 06:36:35;;;;;;;5.75;3.42;;;;;;;14.85;100.00;101255.09;5099218;28;20341;-78
2023/10/10 06:39:21;;;;;;;5.32;3.55;;;;;;;14.90;100.00;101252.41;5090929;28;20044;-82
2023/10/10 06:41:51;;;;;;;3.70;2.60;;;;;;;15.02;100.00;101244.28;5088598;28;20040;-79
2023/10/10 06:44:31;;;;;;;4.40;2.70;;;;;;;15.07;100.00;101243.31;5077725;28;20119;-78
2023/10/10 06:47:00;;;;;;;4.20;2.05;;;;;;;15.13;100.00;101240.56;5074895;28;20036;-79
2023/10/10 06:49:43;;;;;;;3.10;2.67;;;;;;;15.17;100.00;101232.56;5074217;28;20033;-78
2023/10/10 06:52:17;;;;;;;5.47;3.10;;;;;;;15.11;100.00;101235.31;5076644;28;20048;-78
2023/10/10 06:54:53;;;;;;;4.80;3.60;;;;;;;15.05;100.00;101228.38;5043121;28;20048;-80
2023/10/10 06:57:35;;;;;;;3.65;3.20;;;;;;;15.05;100.00;101235.44;5076014;28;20043;-76
2023/10/10 07:03:05;;;;;;;6.13;3.88;;;;;;;15.15;100.00;101237.00;5033306;28;20098;-81
2023/10/10 07:05:34;;;;;;;4.30;3.58;;;;;;;15.20;100.00;101231.63;5051906;28;20068;-78
2023/10/10 07:08:13;;;;;;;5.53;4.60;;;;;;;15.29;100.00;101234.13;5074503;28;20259;-79
2023/10/10 07:10:42;;;;;;;6.45;4.60;;;;;;;15.30;100.00;101240.25;5077403;28;20528;-79
2023/10/10 07:13:13;;;;;;;4.65;4.00;;;;;;;15.32;100.00;101241.97;5076077;28;20040;-79
2023/10/10 07:15:41;;;;;;;6.15;3.45;;;;;;;15.35;100.00;101238.38;5058543;28;20052;-78
2023/10/10 07:18:15;;;;;;;3.88;3.30;;;;;;;15.45;100.00;101244.34;5072294;28;20050;-78
2023/10/10 07:23:53;;;;;;;6.70;3.58;;;;;;;15.44;100.00;101243.47;5041152;28;20048;-79
2023/10/10 07:26:20;;;;;;;6.85;3.05;;;;;;;15.46;100.00;101244.34;5079080;28;20736;-81
2023/10/10 07:28:52;;;;;;;4.10;2.75;;;;;;;15.45;100.00;101242.59;5091361;28;20052;-79
2023/10/10 07:31:22;;;;;;;3.38;3.00;;;;;;;15.38;100.00;101249.75;5060173;28;20468;-79
2023/10/10 07:34:03;;;;;;;4.78;2.88;;;;;;;15.46;100.00;101252.25;5070200;28;20033;-77
2023/10/10 07:36:31;;;;;;;3.10;2.70;;;;;;;15.55;100.00;101245.91;5080457;28;20040;-79
2023/10/10 07:41:44;;;;;;;5.00;4.20;;;;;;;15.75;100.00;101239.34;5073306;28;20044;-80
2023/10/10 07:44:11;;;;;;;3.30;3.00;;;;;;;15.88;100.00;101236.44;5074379;28;20062;-77
2023/10/10 07:46:38;;;;;;;4.18;3.78;;;;;;;16.03;100.00;101240.53;5076835;28;20052;-76
2023/10/10 07:49:06;;;;;;;4.63;3.35;;;;;;;16.27;100.00;101237.34;5076810;28;20117;-81
2023/10/10 07:51:34;;;;;;;4.50;3.22;;;;;;;16.49;100.00;101233.31;5072997;28;20051;-77
2023/10/10 07:54:12;;;;;;;6.45;3.33;;;;;;;16.69;100.00;101234.59;5077238;28;20028;-77
2023/10/10 07:56:45;;;;;;;8.77;3.92;;;;;;;16.82;100.00;101228.06;5073446;28;20068;-77
2023/10/10 07:59:13;;;;;;;4.85;4.10;;;;;;;16.85;100.00;101227.97;5069206;28;20048;-80
2023/10/10 08:01:42;;;;;;;11.00;5.72;;;;;;;16.68;100.00;101233.69;5070741;28;20040;-80
2023/10/10 08:04:13;;;;;;;5.65;4.85;;;;;;;16.75;100.00;101228.25;5094328;28;20047;-78
2023/10/10 08:06:44;;;;;;;9.13;4.55;;;;;;;16.95;100.00;101222.50;5079486;28;20708;-76
2023/10/10 08:09:29;;;;;;;12.60;5.20;;;;;;;16.84;100.00;101230.66;5076946;28;20056;-77
2023/10/10 08:11:56;;;;;;;8.90;6.72;;;;;;;16.96;100.00;101226.88;5072697;28;20652;-78
2023/10/10 08:14:30;;;;;;;7.15;4.93;;;;;;;16.85;100.00;101227.97;5079385;28;20048;-77
2023/10/10 08:17:04;;;;;;;6.70;5.22;;;;;;;16.86;100.00;101232.38;5074459;28;20043;-78
2023/10/10 08:19:34;;;;;;;8.35;5.70;;;;;;;16.99;100.00;101234.75;5075040;28;20036;-79
2023/10/10 08:22:12;;;;;;;7.05;5.47;;;;;;;17.20;100.00;101244.72;5070720;28;20081;-81
2023/10/10 08:24:43;;;;;;;10.45;5.55;;;;;;;17.40;100.00;101242.44;5075537;28;20044;-80
2023/10/10 08:27:14;;;;;;;11.35;5.68;;;;;;;17.45;100.00;101238.75;5072131;28;20130;-80
2023/10/10 08:29:43;;;;;;;6.18;5.40;;;;;;;17.31;100.00;101231.22;5060777;28;20403;-81
2023/10/10 08:32:12;;;;;;;5.90;4.88;;;;;;;17.28;100.00;101233.94;5081339;28;20659;-77
2023/10/10 08:34:42;;;;;;;7.32;5.05;;;;;;;17.30;100.00;101232.13;5069452;28;20124;-82
2023/10/10 08:37:10;;;;;;;9.27;5.95;;;;;;;17.45;100.00;101233.47;5089167;28;20067;-80
2023/10/10 08:39:39;;;;;;;12.55;6.05;;;;;;;17.55;100.00;101227.91;5087277;28;20050;-80
2023/10/10 08:42:10;;;;;;;9.70;6.03;;;;;;;17.48;100.00;101235.16;5062075;28;20093;-81
2023/10/10 08:44:40;;;;;;;12.15;6.07;;;;;;;17.59;100.00;101226.91;5075431;28;20043;-78
2023/10/10 08:47:32;;;;;;;9.18;6.00;;;;;;;17.88;100.00;101230.47;5076612;28;20036;-80
2023/10/10 08:50:00;;;;;;;10.05;6.50;;;;;;;18.21;98.57;101233.03;5082150;28;20046;-78
2023/10/10 08:52:28;;;;;;;7.35;6.22;;;;;;;18.02;97.99;101238.91;5079619;28;20051;-82
2023/10/10 08:54:55;;;;;;;9.65;6.50;;;;;;;18.13;96.89;101233.25;5086339;28;20032;-78
2023/10/10 08:57:26;;;;;;;10.95;5.70;;;;;;;18.12;97.93;101240.34;5078080;28;20471;-80
2023/10/10 08:59:53;;;;;;;13.57;8.45;;;;;;;18.13;97.76;101235.91;5065951;28;20047;-79
2023/10/10 09:02:22;;;;;;;13.95;5.65;;;;;;;17.93;99.01;101231.25;5082235;28;20040;-81
2023/10/10 09:04:51;;;;;;;12.40;6.53;;;;;;;17.72;100.00;101253.88;5078725;28;20414;-78
2023/10/10 09:07:23;;;;;;;10.85;6.50;;;;;;;17.55;100.00;101251.72;5080880;28;20428;-80
2023/10/10 09:10:04;;;;;;;7.53;6.50;;;;;;;17.41;100.00;101241.53;5092780;28;20161;-80
2023/10/10 09:12:52;;;;;;;10.05;6.40;;;;;;;17.43;100.00;101245.00;5077430;28;20036;-79
2023/10/10 09:15:27;;;;;;;12.10;6.57;;;;;;;17.73;100.00;101245.03;5081934;28;20043;-80
2023/10/10 09:18:17;;;;;;;11.48;7.13;;;;;;;18.04;100.00;101241.50;5077006;28;20067;-79
2023/10/10 09:20:46;;;;;;;13.68;7.80;;;;;;;18.07;100.00;101244.94;5081842;28;20051;-78
2023/10/10 09:23:32;;;;;;;11.18;8.07;;;;;;;18.21;100.00;101246.28;5097288;28;20063;-79
2023/10/10 09:26:19;;;;;;;10.73;7.53;;;;;;;18.21;100.00;101244.47;5084942;28;20086;-77
2023/10/10 09:28:49;;;;;;;12.70;7.50;;;;;;;18.19;100.00;101247.19;5080380;28;20085;-80
2023/10/10 09:31:26;;;;;;;13.60;7.38;;;;;;;18.05;100.00;101249.41;5083120;28;20046;-77
2023/10/10 09:33:57;;;;;;;9.30;6.68;;;;;;;18.04;100.00;101255.59;5077153;28;20056;-79
2023/10/10 09:36:27;;;;;;;10.50;7.68;;;;;;;17.99;100.00;101247.81;5079694;28;20040;-78
2023/10/10 09:39:08;;;;;;;11.45;7.53;;;;;;;18.08;100.00;101240.47;5078669;28;20037;-80
2023/10/10 09:41:47;;;;;;;7.55;6.72;;;;;;;18.38;100.00;101243.94;5095007;28;20036;-78
2023/10/10 09:44:53;;;;;;;11.52;7.55;;;;;;;18.50;99.74;101237.41;5064406;28;20526;-78
2023/10/10 09:47:36;;;;;;;8.52;7.47;;;;;;;18.61;97.55;101240.53;5083889;28;20088;-78
2023/10/10 09:52:53;;;;;;;10.95;7.25;;;;;;;19.03;96.21;101238.31;5079863;28;20044;-80
2023/10/10 09:55:39;;;;;;;12.82;7.38;;;;;;;19.19;94.05;101228.91;5066916;28;20052;-77
2023/10/10 09:58:24;;;;;;;11.75;6.63;;;;;;;19.65;91.36;101224.53;5074071;28;20136;-77
2023/10/10 10:00:52;;;;;;;11.27;7.47;;;;;;;19.41;89.84;101217.47;5090146;28;20051;-79
2023/10/10 10:03:42;;;;;;;10.00;7.13;;;;;;;19.53;88.12;101218.81;5093861;28;20048;-80
2023/10/10 10:06:34;;;;;;;10.18;7.18;;;;;;;19.71;87.69;101218.13;5079574;28;20613;-82
2023/10/10 10:09:31;;;;;;;9.48;7.43;;;;;;;19.69;85.46;101208.50;5082807;28;20387;-80
2023/10/10 10:12:35;;;;;;;9.50;6.97;;;;;;;19.60;86.22;101213.22;5077724;28;20706;-79
2023/10/10 10:15:28;;;;;;;;;;;;;;;19.63;86.17;101221.09;5078231;28;20067;-80
2023/10/10 10:18:13;;;;;;;11.48;7.15;;;;;;;19.88;85.17;101213.97;5076923;28;19924;-80
2023/10/10 10:20:46;;;;;;;10.20;6.68;;;;;;;20.16;85.49;101213.75;5079764;28;20081;-79
2023/10/10 10:23:26;;;;;;;14.45;7.22;;;;;;;20.13;82.39;101206.75;5075185;28;20040;-80
2023/10/10 10:26:04;;;;;;;7.40;6.45;;;;;;;20.57;83.05;101213.84;5096272;28;20052;-79
2023/10/10 10:28:36;;;;;;;10.25;6.90;;;;;;;20.02;79.86;101216.09;5060277;28;20039;-80
2023/10/10 10:31:08;;;;;;;7.57;6.60;;;;;;;19.57;83.08;101223.97;5078629;28;20051;-78
2023/10/10 10:33:52;;;;;;;8.82;6.18;;;;;;;19.53;81.99;101216.16;5073813;28;20291;-79
2023/10/10 10:36:19;;;;;;;7.40;5.85;;;;;;;19.77;82.56;101207.25;5077767;28;20072;-79
2023/10/10 10:41:43;;;;;;;9.18;5.65;;;;;;;20.56;76.84;101211.22;5075401;28;20123;-78
2023/10/10 10:44:12;;;;;;;8.45;5.50;;;;;;;20.81;74.89;101203.13;5063493;28;20671;-78
2023/10/10 10:46:43;;;;;;;9.70;5.40;;;;;;;21.07;73.50;101212.63;5062091;28;20040;-82
2023/10/10 10:49:13;;;;;;;6.43;5.07;;;;;;;21.35;73.38;101205.22;5072279;28;20199;-79
2023/10/10 10:51:42;;;;;;;8.50;5.10;;;;;;;21.27;71.99;101202.88;5057268;28;20576;-79
2023/10/10 10:54:29;;;;;;;6.43;4.93;;;;;;;21.01;73.73;101202.25;5078270;28;20598;-81
2023/10/10 10:57:02;;;;;;;5.10;4.60;;;;;;;20.75;73.50;101192.75;5078091;28;20516;-80
2023/10/10 10:59:36;;;;;;;8.23;4.88;;;;;;;21.86;72.09;101182.41;5070429;28;20043;-81
2023/10/10 11:02:13;;;;;;;8.23;4.78;;;;;;;22.21;68.78;101184.31;5074620;28;20076;-81
2023/10/10 11:04:44;;;;;;;5.30;3.88;;;;;;;23.63;64.87;101171.63;5074072;28;20059;-78
2023/10/10 11:07:16;;;;;;;6.45;4.78;;;;;;;23.88;63.11;101172.91;5056183;28;20158;-81
2023/10/10 11:09:52;;;;;;;6.72;4.40;;;;;;;23.64;63.12;101165.31;5073381;28;20052;-83
2023/10/10 11:12:22;;;;;;;7.45;4.35;;;;;;;22.72;64.38;101179.13;5073051;28;20056;-81
2023/10/10 11:14:50;;;;;;;5.38;4.18;;;;;;;22.94;64.03;101169.06;5059928;28;20059;-80
2023/10/10 11:17:18;;;;;;;5.28;3.65;;;;;;;23.13;65.10;101165.41;5070212;28;20052;-81
2023/10/10 11:19:48;;;;;;;6.90;5.03;;;;;;;23.04;63.80;101158.72;5088077;28;20044;-81
2023/10/10 11:22:38;;;;;;;6.05;4.35;;;;;;;22.99;63.98;101151.94;5075111;28;20051;-80
2023/10/10 11:25:11;;;;;;;5.10;4.47;;;;;;;22.76;65.44;101153.97;5076286;28;20040;-81
2023/10/10 11:27:44;;;;;;;7.85;5.55;;;;;;;22.57;64.61;101157.63;5075845;28;20111;-81
2023/10/10 11:30:19;;;;;;;5.53;4.60;;;;;;;22.59;66.17;101147.75;5073215;28;20059;-79
2023/10/10 11:32:47;;;;;;;6.22;5.07;;;;;;;22.88;65.45;101139.13;5078381;28;20040;-79
2023/10/10 11:35:26;;;;;;;7.93;6.28;;;;;;;22.65;65.16;101143.03;5061866;28;20054;-80
2023/10/10 11:38:06;;;;;;;10.32;6.80;;;;;;;21.94;67.47;101140.28;5073089;28;20370;-79
2023/10/10 11:40:33;;;;;;;9.98;5.90;;;;;;;21.80;69.31;101137.44;5076601;28;20500;-80
2023/10/10 11:43:04;;;;;;;11.07;7.90;;;;;;;21.68;69.25;101138.00;5076892;28;20041;-77
2023/10/10 11:45:39;;;;;;;12.10;7.50;;;;;;;21.52;70.03;101132.50;5092605;28;20048;-79
2023/10/10 11:48:12;;;;;;;7.57;6.63;;;;;;;22.12;68.11;101134.97;5081660;28;20044;-79
2023/10/10 11:50:57;;;;;;;8.50;6.40;;;;;;;22.35;66.68;101141.81;5067988;28;20057;-80
2023/10/10 11:53:27;;;;;;;8.55;7.05;;;;;;;22.17;67.22;101135.59;5078206;28;20044;-80
2023/10/10 11:55:55;;;;;;;10.27;8.32;;;;;;;22.12;67.10;101134.97;5075662;28;20132;-79
2023/10/10 11:58:35;;;;;;;12.48;8.02;;;;;;;21.85;68.82;101135.41;5076343;28;20388;-81
2023/10/10 12:01:05;;;;;;;11.15;8.02;;;;;;;21.98;68.50;101123.19;5058406;28;20570;-81
2023/10/10 12:03:42;;;;;;;13.35;8.48;;;;;;;21.82;69.22;101119.53;5071196;28;20032;-81
2023/10/10 12:06:14;;;;;;;12.40;9.20;;;;;;;21.68;69.70;101122.00;5077223;28;20058;-80
2023/10/10 12:08:46;;;;;;;13.98;9.23;;;;;;;21.40;70.74;101109.97;5067949;28;20712;-78
2023/10/10 12:11:19;;;;;;;10.37;7.97;;;;;;;21.48;70.89;101100.72;5072537;28;20074;-78
2023/10/10 12:13:56;;;;;;;13.65;8.80;;;;;;;22.15;67.73;101092.16;5074667;28;20483;-79
2023/10/10 12:16:25;;;;;;;16.95;8.40;;;;;;;23.37;64.30;101091.09;5074614;28;20047;-79
2023/10/10 12:18:52;;;;;;;10.80;7.75;;;;;;;24.35;61.96;101082.84;5070522;28;20059;-82
2023/10/10 12:21:22;;;;;;;10.93;8.07;;;;;;;24.08;60.82;101080.88;5071078;28;20060;-81
2023/10/10 12:23:52;;;;;;;12.60;8.10;;;;;;;23.24;63.08;101068.69;5088350;28;20105;-81
2023/10/10 12:26:20;;;;;;;13.38;8.38;;;;;;;23.11;64.52;101073.81;5072831;28;20051;-81
2023/10/10 12:28:48;;;;;;;11.68;9.15;;;;;;;22.58;66.38;101071.31;5076744;28;20051;-81
2023/10/10 12:31:16;;;;;;;12.20;9.90;;;;;;;22.48;66.50;101061.19;5079944;28;20048;-82
2023/10/10 12:33:48;;;;;;;9.75;8.75;;;;;;;22.49;67.87;101057.56;5075391;28;20137;-80
2023/10/10 12:36:15;;;;;;;12.00;9.27;;;;;;;21.98;69.51;101048.56;5075381;28;20814;-81
2023/10/10 12:38:42;;;;;;;11.80;9.00;;;;;;;21.79;70.17;101058.41;5072422;28;20035;-79
2023/10/10 12:41:11;;;;;;;14.98;8.27;;;;;;;21.69;70.97;101055.31;5074988;28;20701;-80
2023/10/10 12:43:38;;;;;;;12.45;8.07;;;;;;;21.74;71.49;101052.44;5072928;28;20514;-80
2023/10/10 12:46:07;;;;;;;11.10;8.57;;;;;;;21.71;71.74;101042.81;5075608;28;20046;-81
2023/10/10 12:48:39;;;;;;;15.85;9.43;;;;;;;21.96;71.16;101042.41;5078614;28;20937;-78
2023/10/10 12:51:09;;;;;;;11.98;8.93;;;;;;;21.80;71.88;101033.50;5075999;28;20040;-84
2023/10/10 12:53:39;;;;;;;14.55;9.38;;;;;;;22.11;70.35;101030.13;5080007;28;20082;-77
2023/10/10 12:56:11;;;;;;;12.00;9.02;;;;;;;21.97;71.32;101035.31;5075235;28;20122;-77
2023/10/10 12:58:42;;;;;;;13.02;8.80;;;;;;;22.36;70.13;101036.88;5074267;28;21519;-77
2023/10/10 13:01:22;;;;;;;11.30;9.27;;;;;;;22.49;69.22;101036.22;5077940;28;20141;-82
2023/10/10 13:03:48;;;;;;;11.60;8.65;;;;;;;22.69;68.35;101037.84;5072656;28;20044;-81
2023/10/10 13:06:18;;;;;;;9.45;8.45;;;;;;;22.77;68.81;101032.94;5076129;28;20132;-80
2023/10/10 13:08:48;;;;;;;13.25;8.82;;;;;;;22.40;69.37;101032.25;5079395;28;20086;-78
2023/10/10 13:11:19;;;;;;;12.13;8.45;;;;;;;22.31;69.09;101029.09;5079240;28;20051;-83
2023/10/10 13:13:48;;;;;;;15.82;9.20;;;;;;;22.13;70.65;101024.72;5077769;28;20089;-79
2023/10/10 13:16:27;;;;;;;12.75;8.48;;;;;;;22.21;70.31;101018.97;5079462;28;20067;-81
2023/10/10 13:18:58;;;;;;;18.50;9.50;;;;;;;22.25;69.47;101017.88;5089450;28;20109;-80
2023/10/10 13:21:25;;;;;;;15.52;9.95;;;;;;;22.14;70.56;101007.78;5074661;28;20054;-80
2023/10/10 13:23:54;;;;;;;11.52;9.25;;;;;;;22.27;70.12;101002.66;5080258;28;20059;-81
2023/10/10 13:26:21;;;;;;;12.57;8.27;;;;;;;22.30;70.50;101008.69;5086926;28;20073;-82
2023/10/10 13:28:48;;;;;;;10.70;8.18;;;;;;;22.30;70.04;101010.50;5090281;28;20040;-81
2023/10/10 13:31:24;;;;;;;13.57;9.82;;;;;;;22.25;70.27;101000.09;5096880;28;20036;-83
2023/10/10 13:33:53;;;;;;;16.33;9.82;;;;;;;22.22;70.30;100997.56;5091573;28;20044;-82
2023/10/10 13:36:20;;;;;;;13.52;8.32;;;;;;;22.32;69.57;101005.97;5084733;28;20591;-82
2023/10/10 13:38:48;;;;;;;15.18;8.50;;;;;;;22.54;69.08;100994.16;5084991;28;20050;-80
2023/10/10 13:41:27;;;;;;;10.63;8.10;;;;;;;22.45;68.67;100991.06;5085644;28;20067;-83
2023/10/10 13:43:59;;;;;;;14.90;8.55;;;;;;;22.41;68.74;100981.50;5084089;28;20042;-81
2023/10/10 13:46:27;;;;;;;15.25;9.10;;;;;;;23.05;67.16;100991.38;5070890;28;20040;-78
2023/10/10 13:48:54;;;;;;;13.90;9.18;;;;;;;23.93;63.53;100984.56;5084930;28;20035;-83